sensor_id;sensor_type;location;lat;lon;timestamp;temperature;humidity
51595;DHT22;37677;53.254;6.594;2022-11-12T00:00:26;8.80;1.00
51595;DHT22;37677;53.254;6.594;2022-11-12T00:02:52;8.90;2.20
51595;DHT22;37677;53.254;6.594;2022-11-12T00:05:18;9.90;2.00
51595;DHT22;37677;53.254;6.594;2022-11-12T00:07:43;8.70;3.80
51595;DHT22;37677;53.254;6.594;2022-11-12T00:10:09;8.80;3.20
51595;DHT22;37677;53.254;6.594;2022-11-12T00:12:35;8.80;3.00
51595;DHT22;37677;53.254;6.594;2022-11-12T00:15:00;8.90;2.00
51595;DHT22;37677;53.254;6.594;2022-11-12T00:17:26;8.80;3.10
51595;DHT22;37677;53.254;6.594;2022-11-12T00:19:52;10.60;3.20
51595;DHT22;37677;53.254;6.594;2022-11-12T00:22:19;11.30;3.20
51595;DHT22;37677;53.254;6.594;2022-11-12T00:24:44;8.80;1.00
51595;DHT22;37677;53.254;6.594;2022-11-12T00:27:10;10.10;1.00
51595;DHT22;37677;53.254;6.594;2022-11-12T00:29:36;11.40;1.00
51595;DHT22;37677;53.254;6.594;2022-11-12T00:32:04;8.80;1.00
51595;DHT22;37677;53.254;6.594;2022-11-12T00:34:31;9.30;1.00
51595;DHT22;37677;53.254;6.594;2022-11-12T00:36:56;9.10;1.00
51595;DHT22;37677;53.254;6.594;2022-11-12T00:39:22;10.20;3.30
51595;DHT22;37677;53.254;6.594;2022-11-12T00:41:48;9.10;3.10
51595;DHT22;37677;53.254;6.594;2022-11-12T00:44:13;10.70;4.20
51595;DHT22;37677;53.254;6.594;2022-11-12T00:46:39;11.20;4.00
51595;DHT22;37677;53.254;6.594;2022-11-12T00:49:04;8.90;3.60
51595;DHT22;37677;53.254;6.594;2022-11-12T00:51:30;9.40;3.50
51595;DHT22;37677;53.254;6.594;2022-11-12T00:53:56;8.70;3.60
51595;DHT22;37677;53.254;6.594;2022-11-12T00:56:21;8.80;3.40
51595;DHT22;37677;53.254;6.594;2022-11-12T00:58:47;9.40;4.30
51595;DHT22;37677;53.254;6.594;2022-11-12T01:01:13;8.60;5.00
51595;DHT22;37677;53.254;6.594;2022-11-12T01:03:40;10.50;6.30
51595;DHT22;37677;53.254;6.594;2022-11-12T01:06:09;8.80;5.50
51595;DHT22;37677;53.254;6.594;2022-11-12T01:08:35;9.80;6.10
51595;DHT22;37677;53.254;6.594;2022-11-12T01:11:13;8.50;5.80
51595;DHT22;37677;53.254;6.594;2022-11-12T01:13:41;10.80;7.50
51595;DHT22;37677;53.254;6.594;2022-11-12T01:16:09;8.80;6.90
51595;DHT22;37677;53.254;6.594;2022-11-12T01:18:35;8.40;6.40
51595;DHT22;37677;53.254;6.594;2022-11-12T01:21:01;8.60;9.60
51595;DHT22;37677;53.254;6.594;2022-11-12T01:23:27;8.50;8.40
51595;DHT22;37677;53.254;6.594;2022-11-12T01:25:53;8.70;15.60
51595;DHT22;37677;53.254;6.594;2022-11-12T01:28:19;8.90;19.70
51595;DHT22;37677;53.254;6.594;2022-11-12T01:30:44;9.70;14.50
51595;DHT22;37677;53.254;6.594;2022-11-12T01:33:10;8.80;18.90
51595;DHT22;37677;53.254;6.594;2022-11-12T01:35:36;8.40;19.70
51595;DHT22;37677;53.254;6.594;2022-11-12T01:38:01;9.80;18.40
51595;DHT22;37677;53.254;6.594;2022-11-12T01:40:27;9.00;10.80
51595;DHT22;37677;53.254;6.594;2022-11-12T01:42:53;8.50;17.50
51595;DHT22;37677;53.254;6.594;2022-11-12T01:45:19;9.00;15.70
51595;DHT22;37677;53.254;6.594;2022-11-12T01:47:48;8.90;13.60
51595;DHT22;37677;53.254;6.594;2022-11-12T01:50:42;10.00;10.00
51595;DHT22;37677;53.254;6.594;2022-11-12T01:53:09;8.60;13.50
51595;DHT22;37677;53.254;6.594;2022-11-12T01:55:37;8.30;18.50
51595;DHT22;37677;53.254;6.594;2022-11-12T01:58:10;8.50;13.40
51595;DHT22;37677;53.254;6.594;2022-11-12T02:00:37;8.10;11.60
51595;DHT22;37677;53.254;6.594;2022-11-12T02:03:08;8.10;18.90
51595;DHT22;37677;53.254;6.594;2022-11-12T02:05:36;8.50;24.80
51595;DHT22;37677;53.254;6.594;2022-11-12T02:08:04;8.40;18.60
51595;DHT22;37677;53.254;6.594;2022-11-12T02:10:33;8.20;13.20
51595;DHT22;37677;53.254;6.594;2022-11-12T02:12:59;8.20;19.70
51595;DHT22;37677;53.254;6.594;2022-11-12T02:15:44;8.40;21.40
51595;DHT22;37677;53.254;6.594;2022-11-12T02:18:10;9.00;15.70
51595;DHT22;37677;53.254;6.594;2022-11-12T02:20:37;9.00;15.50
51595;DHT22;37677;53.254;6.594;2022-11-12T02:23:04;8.40;16.80
51595;DHT22;37677;53.254;6.594;2022-11-12T02:25:30;8.00;20.40
51595;DHT22;37677;53.254;6.594;2022-11-12T02:27:57;8.00;18.30
51595;DHT22;37677;53.254;6.594;2022-11-12T02:30:41;8.20;19.70
51595;DHT22;37677;53.254;6.594;2022-11-12T02:33:07;7.90;18.60
51595;DHT22;37677;53.254;6.594;2022-11-12T02:35:33;8.20;19.30
51595;DHT22;37677;53.254;6.594;2022-11-12T02:37:59;7.80;20.80
51595;DHT22;37677;53.254;6.594;2022-11-12T02:40:24;9.20;21.60
51595;DHT22;37677;53.254;6.594;2022-11-12T02:42:50;8.20;20.00
51595;DHT22;37677;53.254;6.594;2022-11-12T02:45:16;7.90;21.20
51595;DHT22;37677;53.254;6.594;2022-11-12T02:47:43;7.80;21.60
51595;DHT22;37677;53.254;6.594;2022-11-12T02:50:08;7.90;24.60
51595;DHT22;37677;53.254;6.594;2022-11-12T02:52:34;7.80;28.00
51595;DHT22;37677;53.254;6.594;2022-11-12T02:55:00;8.00;26.80
51595;DHT22;37677;53.254;6.594;2022-11-12T02:57:26;7.70;29.30
51595;DHT22;37677;53.254;6.594;2022-11-12T02:59:53;7.80;26.70
51595;DHT22;37677;53.254;6.594;2022-11-12T03:02:19;7.70;29.30
51595;DHT22;37677;53.254;6.594;2022-11-12T03:04:45;7.10;30.50
51595;DHT22;37677;53.254;6.594;2022-11-12T03:07:10;9.10;24.70
51595;DHT22;37677;53.254;6.594;2022-11-12T03:12:02;7.50;17.20
51595;DHT22;37677;53.254;6.594;2022-11-12T03:14:28;7.40;18.00
51595;DHT22;37677;53.254;6.594;2022-11-12T03:16:53;9.20;21.10
51595;DHT22;37677;53.254;6.594;2022-11-12T03:19:19;7.50;20.40
51595;DHT22;37677;53.254;6.594;2022-11-12T03:21:44;7.60;21.60
51595;DHT22;37677;53.254;6.594;2022-11-12T03:24:10;7.40;21.40
51595;DHT22;37677;53.254;6.594;2022-11-12T03:26:36;7.20;20.20
51595;DHT22;37677;53.254;6.594;2022-11-12T03:29:02;7.60;21.10
51595;DHT22;37677;53.254;6.594;2022-11-12T03:31:27;8.20;23.80
51595;DHT22;37677;53.254;6.594;2022-11-12T03:33:53;7.40;21.80
51595;DHT22;37677;53.254;6.594;2022-11-12T03:36:19;7.50;23.20
51595;DHT22;37677;53.254;6.594;2022-11-12T03:38:44;7.50;22.80
51595;DHT22;37677;53.254;6.594;2022-11-12T03:41:10;7.90;24.40
51595;DHT22;37677;53.254;6.594;2022-11-12T03:43:35;7.40;24.80
51595;DHT22;37677;53.254;6.594;2022-11-12T03:46:01;7.40;23.70
51595;DHT22;37677;53.254;6.594;2022-11-12T03:48:27;7.50;25.30
51595;DHT22;37677;53.254;6.594;2022-11-12T03:50:57;7.30;24.40
51595;DHT22;37677;53.254;6.594;2022-11-12T03:53:22;8.30;24.60
51595;DHT22;37677;53.254;6.594;2022-11-12T03:55:48;7.60;25.50
51595;DHT22;37677;53.254;6.594;2022-11-12T03:58:14;7.50;26.20
51595;DHT22;37677;53.254;6.594;2022-11-12T04:00:39;7.30;28.40
51595;DHT22;37677;53.254;6.594;2022-11-12T04:03:05;7.20;26.60
51595;DHT22;37677;53.254;6.594;2022-11-12T04:05:31;7.60;27.20
51595;DHT22;37677;53.254;6.594;2022-11-12T04:08:18;7.40;24.90
51595;DHT22;37677;53.254;6.594;2022-11-12T04:11:06;7.40;28.20
51595;DHT22;37677;53.254;6.594;2022-11-12T04:13:32;7.50;29.20
51595;DHT22;37677;53.254;6.594;2022-11-12T04:16:15;7.30;32.20
51595;DHT22;37677;53.254;6.594;2022-11-12T04:19:02;7.20;27.30
51595;DHT22;37677;53.254;6.594;2022-11-12T04:21:50;9.00;32.50
51595;DHT22;37677;53.254;6.594;2022-11-12T04:24:29;7.30;33.30
51595;DHT22;37677;53.254;6.594;2022-11-12T04:27:26;7.10;24.90
51595;DHT22;37677;53.254;6.594;2022-11-12T04:29:53;7.10;31.10
51595;DHT22;37677;53.254;6.594;2022-11-12T04:32:46;8.00;30.90
51595;DHT22;37677;53.254;6.594;2022-11-12T04:35:12;7.30;27.80
51595;DHT22;37677;53.254;6.594;2022-11-12T04:37:38;7.20;29.70
51595;DHT22;37677;53.254;6.594;2022-11-12T04:40:11;7.60;26.90
51595;DHT22;37677;53.254;6.594;2022-11-12T04:42:55;7.00;29.60
51595;DHT22;37677;53.254;6.594;2022-11-12T04:45:40;7.30;27.60
51595;DHT22;37677;53.254;6.594;2022-11-12T04:48:07;7.30;29.30
51595;DHT22;37677;53.254;6.594;2022-11-12T04:50:33;6.90;27.70
51595;DHT22;37677;53.254;6.594;2022-11-12T04:52:59;6.90;27.60
51595;DHT22;37677;53.254;6.594;2022-11-12T04:55:24;7.80;29.20
51595;DHT22;37677;53.254;6.594;2022-11-12T04:57:50;6.90;27.40
51595;DHT22;37677;53.254;6.594;2022-11-12T05:00:16;6.80;24.10
51595;DHT22;37677;53.254;6.594;2022-11-12T05:02:41;6.70;24.10
51595;DHT22;37677;53.254;6.594;2022-11-12T05:05:07;6.80;24.30
51595;DHT22;37677;53.254;6.594;2022-11-12T05:07:33;6.80;25.80
51595;DHT22;37677;53.254;6.594;2022-11-12T05:09:59;7.60;25.90
51595;DHT22;37677;53.254;6.594;2022-11-12T05:12:24;6.80;26.10
51595;DHT22;37677;53.254;6.594;2022-11-12T05:14:50;6.80;28.00
51595;DHT22;37677;53.254;6.594;2022-11-12T05:17:16;6.70;27.00
51595;DHT22;37677;53.254;6.594;2022-11-12T05:19:42;7.10;28.70
51595;DHT22;37677;53.254;6.594;2022-11-12T05:22:09;7.70;29.50
51595;DHT22;37677;53.254;6.594;2022-11-12T05:24:38;7.00;31.80
51595;DHT22;37677;53.254;6.594;2022-11-12T05:27:10;6.80;31.30
51595;DHT22;37677;53.254;6.594;2022-11-12T05:29:36;6.90;31.50
51595;DHT22;37677;53.254;6.594;2022-11-12T05:32:04;7.00;33.60
51595;DHT22;37677;53.254;6.594;2022-11-12T05:34:30;7.10;33.70
51595;DHT22;37677;53.254;6.594;2022-11-12T05:36:55;7.50;34.40
51595;DHT22;37677;53.254;6.594;2022-11-12T05:39:21;7.20;39.50
51595;DHT22;37677;53.254;6.594;2022-11-12T05:41:47;7.20;27.00
51595;DHT22;37677;53.254;6.594;2022-11-12T05:44:13;7.50;35.20
51595;DHT22;37677;53.254;6.594;2022-11-12T05:46:38;7.20;30.00
51595;DHT22;37677;53.254;6.594;2022-11-12T05:49:04;7.10;23.00
51595;DHT22;37677;53.254;6.594;2022-11-12T05:51:30;7.00;27.50
51595;DHT22;37677;53.254;6.594;2022-11-12T05:53:55;8.90;24.20
51595;DHT22;37677;53.254;6.594;2022-11-12T05:56:21;7.00;25.60
51595;DHT22;37677;53.254;6.594;2022-11-12T05:58:47;7.30;28.90
51595;DHT22;37677;53.254;6.594;2022-11-12T06:01:12;6.80;35.40
51595;DHT22;37677;53.254;6.594;2022-11-12T06:03:38;6.90;22.50
51595;DHT22;37677;53.254;6.594;2022-11-12T06:06:04;6.90;22.60
51595;DHT22;37677;53.254;6.594;2022-11-12T06:08:30;7.10;31.00
51595;DHT22;37677;53.254;6.594;2022-11-12T06:10:55;7.20;25.30
51595;DHT22;37677;53.254;6.594;2022-11-12T06:13:22;7.90;29.10
51595;DHT22;37677;53.254;6.594;2022-11-12T06:15:48;7.00;23.10
51595;DHT22;37677;53.254;6.594;2022-11-12T06:18:14;6.90;23.40
51595;DHT22;37677;53.254;6.594;2022-11-12T06:20:40;6.80;25.10
51595;DHT22;37677;53.254;6.594;2022-11-12T06:23:05;7.00;22.70
51595;DHT22;37677;53.254;6.594;2022-11-12T06:25:31;7.30;29.20
51595;DHT22;37677;53.254;6.594;2022-11-12T06:27:57;6.90;30.40
51595;DHT22;37677;53.254;6.594;2022-11-12T06:30:22;7.90;25.10
51595;DHT22;37677;53.254;6.594;2022-11-12T06:32:50;7.50;28.50
51595;DHT22;37677;53.254;6.594;2022-11-12T06:35:16;7.80;25.60
51595;DHT22;37677;53.254;6.594;2022-11-12T06:37:47;6.50;23.70
51595;DHT22;37677;53.254;6.594;2022-11-12T06:40:13;6.40;24.20
51595;DHT22;37677;53.254;6.594;2022-11-12T06:42:39;6.50;28.60
51595;DHT22;37677;53.254;6.594;2022-11-12T06:45:06;6.70;33.40
51595;DHT22;37677;53.254;6.594;2022-11-12T06:47:31;6.20;22.80
51595;DHT22;37677;53.254;6.594;2022-11-12T06:49:57;7.20;23.90
51595;DHT22;37677;53.254;6.594;2022-11-12T06:52:23;7.50;25.40
51595;DHT22;37677;53.254;6.594;2022-11-12T06:54:48;6.70;26.50
51595;DHT22;37677;53.254;6.594;2022-11-12T06:57:14;6.30;28.70
51595;DHT22;37677;53.254;6.594;2022-11-12T06:59:40;6.30;28.40
51595;DHT22;37677;53.254;6.594;2022-11-12T07:02:06;6.60;28.50
51595;DHT22;37677;53.254;6.594;2022-11-12T07:04:31;6.30;29.30
51595;DHT22;37677;53.254;6.594;2022-11-12T07:06:57;7.70;31.00
51595;DHT22;37677;53.254;6.594;2022-11-12T07:09:22;6.30;31.40
51595;DHT22;37677;53.254;6.594;2022-11-12T07:11:48;6.80;32.30
51595;DHT22;37677;53.254;6.594;2022-11-12T07:14:14;6.80;32.60
51595;DHT22;37677;53.254;6.594;2022-11-12T07:16:39;7.40;33.50
51595;DHT22;37677;53.254;6.594;2022-11-12T07:19:05;7.20;34.00
51595;DHT22;37677;53.254;6.594;2022-11-12T07:21:31;6.90;34.00
51595;DHT22;37677;53.254;6.594;2022-11-12T07:23:56;6.90;34.60
51595;DHT22;37677;53.254;6.594;2022-11-12T07:26:24;7.00;34.60
51595;DHT22;37677;53.254;6.594;2022-11-12T07:28:52;7.60;36.10
51595;DHT22;37677;53.254;6.594;2022-11-12T07:31:20;7.10;35.70
51595;DHT22;37677;53.254;6.594;2022-11-12T07:33:46;6.90;35.30
51595;DHT22;37677;53.254;6.594;2022-11-12T07:36:18;9.00;35.90
51595;DHT22;37677;53.254;6.594;2022-11-12T07:38:45;7.70;34.90
51595;DHT22;37677;53.254;6.594;2022-11-12T07:41:13;7.10;34.10
51595;DHT22;37677;53.254;6.594;2022-11-12T07:43:40;6.80;32.90
51595;DHT22;37677;53.254;6.594;2022-11-12T07:46:12;7.10;32.40
51595;DHT22;37677;53.254;6.594;2022-11-12T07:48:38;7.00;29.10
51595;DHT22;37677;53.254;6.594;2022-11-12T07:51:13;7.50;33.20
51595;DHT22;37677;53.254;6.594;2022-11-12T07:53:39;7.00;33.30
51595;DHT22;37677;53.254;6.594;2022-11-12T07:56:05;7.40;32.90
51595;DHT22;37677;53.254;6.594;2022-11-12T07:58:32;7.40;33.60
51595;DHT22;37677;53.254;6.594;2022-11-12T08:01:22;7.50;35.60
51595;DHT22;37677;53.254;6.594;2022-11-12T08:03:48;7.40;35.50
51595;DHT22;37677;53.254;6.594;2022-11-12T08:06:14;8.80;39.90
51595;DHT22;37677;53.254;6.594;2022-11-12T08:08:40;7.50;40.00
51595;DHT22;37677;53.254;6.594;2022-11-12T08:11:05;7.40;41.40
51595;DHT22;37677;53.254;6.594;2022-11-12T08:13:31;7.80;42.40
51595;DHT22;37677;53.254;6.594;2022-11-12T08:15:58;8.60;44.00
51595;DHT22;37677;53.254;6.594;2022-11-12T08:18:24;7.70;43.50
51595;DHT22;37677;53.254;6.594;2022-11-12T08:20:50;8.20;44.20
51595;DHT22;37677;53.254;6.594;2022-11-12T08:23:16;7.80;43.80
51595;DHT22;37677;53.254;6.594;2022-11-12T08:25:41;8.20;45.20
51595;DHT22;37677;53.254;6.594;2022-11-12T08:28:07;7.90;45.50
51595;DHT22;37677;53.254;6.594;2022-11-12T08:30:35;8.70;45.50
51595;DHT22;37677;53.254;6.594;2022-11-12T08:33:03;7.90;46.10
51595;DHT22;37677;53.254;6.594;2022-11-12T08:35:30;8.90;47.30
51595;DHT22;37677;53.254;6.594;2022-11-12T08:38:03;7.40;45.70
51595;DHT22;37677;53.254;6.594;2022-11-12T08:40:30;8.90;48.00
51595;DHT22;37677;53.254;6.594;2022-11-12T08:43:02;8.10;47.40
51595;DHT22;37677;53.254;6.594;2022-11-12T08:45:30;8.20;47.70
51595;DHT22;37677;53.254;6.594;2022-11-12T08:48:03;8.20;48.90
51595;DHT22;37677;53.254;6.594;2022-11-12T08:50:30;8.20;46.50
51595;DHT22;37677;53.254;6.594;2022-11-12T08:53:00;8.30;48.50
51595;DHT22;37677;53.254;6.594;2022-11-12T08:55:29;8.30;49.20
51595;DHT22;37677;53.254;6.594;2022-11-12T08:57:55;8.50;49.50
51595;DHT22;37677;53.254;6.594;2022-11-12T09:00:38;8.50;48.20
51595;DHT22;37677;53.254;6.594;2022-11-12T09:03:06;8.40;44.00
51595;DHT22;37677;53.254;6.594;2022-11-12T09:05:35;10.00;44.90
51595;DHT22;37677;53.254;6.594;2022-11-12T09:08:13;8.90;44.90
51595;DHT22;37677;53.254;6.594;2022-11-12T09:10:39;8.50;44.90
51595;DHT22;37677;53.254;6.594;2022-11-12T09:13:05;8.60;46.50
51595;DHT22;37677;53.254;6.594;2022-11-12T09:15:31;8.70;50.60
51595;DHT22;37677;53.254;6.594;2022-11-12T09:18:03;9.50;44.10
51595;DHT22;37677;53.254;6.594;2022-11-12T09:20:30;8.70;43.70
51595;DHT22;37677;53.254;6.594;2022-11-12T09:23:00;8.70;44.00
51595;DHT22;37677;53.254;6.594;2022-11-12T09:25:27;8.70;43.30
51595;DHT22;37677;53.254;6.594;2022-11-12T09:27:53;8.60;41.90
51595;DHT22;37677;53.254;6.594;2022-11-12T09:30:19;8.70;40.70
51595;DHT22;37677;53.254;6.594;2022-11-12T09:32:44;8.90;40.90
51595;DHT22;37677;53.254;6.594;2022-11-12T09:35:10;8.80;42.70
51595;DHT22;37677;53.254;6.594;2022-11-12T09:37:39;8.80;41.50
51595;DHT22;37677;53.254;6.594;2022-11-12T09:40:06;8.80;41.50
51595;DHT22;37677;53.254;6.594;2022-11-12T09:42:35;8.80;40.40
51595;DHT22;37677;53.254;6.594;2022-11-12T09:45:13;8.90;40.20
51595;DHT22;37677;53.254;6.594;2022-11-12T09:47:56;8.90;43.40
51595;DHT22;37677;53.254;6.594;2022-11-12T09:50:37;8.90;43.50
51595;DHT22;37677;53.254;6.594;2022-11-12T09:53:17;9.10;39.10
51595;DHT22;37677;53.254;6.594;2022-11-12T09:55:47;8.90;39.80
51595;DHT22;37677;53.254;6.594;2022-11-12T09:58:15;8.90;38.70
51595;DHT22;37677;53.254;6.594;2022-11-12T10:00:56;8.90;37.90
51595;DHT22;37677;53.254;6.594;2022-11-12T10:03:31;8.80;36.60
51595;DHT22;37677;53.254;6.594;2022-11-12T10:06:10;10.40;38.00
51595;DHT22;37677;53.254;6.594;2022-11-12T10:08:47;8.80;37.90
51595;DHT22;37677;53.254;6.594;2022-11-12T10:18:03;9.30;37.70
51595;DHT22;37677;53.254;6.594;2022-11-12T10:20:45;8.90;39.10
51595;DHT22;37677;53.254;6.594;2022-11-12T10:23:27;9.50;39.10
51595;DHT22;37677;53.254;6.594;2022-11-12T10:25:57;9.20;41.40
51595;DHT22;37677;53.254;6.594;2022-11-12T10:28:38;8.90;41.20
51595;DHT22;37677;53.254;6.594;2022-11-12T10:31:17;9.30;43.40
51595;DHT22;37677;53.254;6.594;2022-11-12T10:33:43;8.90;43.50
51595;DHT22;37677;53.254;6.594;2022-11-12T10:36:34;9.90;47.20
51595;DHT22;37677;53.254;6.594;2022-11-12T10:39:00;9.10;40.90
51595;DHT22;37677;53.254;6.594;2022-11-12T10:41:28;8.90;41.90
51595;DHT22;37677;53.254;6.594;2022-11-12T10:44:03;8.90;45.80
51595;DHT22;37677;53.254;6.594;2022-11-12T10:46:31;9.60;47.80
51595;DHT22;37677;53.254;6.594;2022-11-12T10:49:06;8.90;35.50
51595;DHT22;37677;53.254;6.594;2022-11-12T10:51:36;8.90;40.10
51595;DHT22;37677;53.254;6.594;2022-11-12T10:56:52;9.00;45.70
51595;DHT22;37677;53.254;6.594;2022-11-12T10:59:19;10.00;50.10
51595;DHT22;37677;53.254;6.594;2022-11-12T11:01:52;10.20;45.10
51595;DHT22;37677;53.254;6.594;2022-11-12T11:04:28;9.20;48.30
51595;DHT22;37677;53.254;6.594;2022-11-12T11:07:19;9.30;50.50
51595;DHT22;37677;53.254;6.594;2022-11-12T11:09:56;9.20;42.60
51595;DHT22;37677;53.254;6.594;2022-11-12T11:12:32;9.40;36.30
51595;DHT22;37677;53.254;6.594;2022-11-12T11:15:28;9.00;36.00
51595;DHT22;37677;53.254;6.594;2022-11-12T11:17:54;8.80;35.90
51595;DHT22;37677;53.254;6.594;2022-11-12T11:20:42;9.10;36.60
51595;DHT22;37677;53.254;6.594;2022-11-12T11:23:29;9.70;36.80
51595;DHT22;37677;53.254;6.594;2022-11-12T11:26:12;9.00;38.60
51595;DHT22;37677;53.254;6.594;2022-11-12T11:28:48;9.00;39.30
51595;DHT22;37677;53.254;6.594;2022-11-12T11:31:51;9.00;40.30
51595;DHT22;37677;53.254;6.594;2022-11-12T11:37:03;8.90;36.20
51595;DHT22;37677;53.254;6.594;2022-11-12T11:40:37;8.80;37.20
51595;DHT22;37677;53.254;6.594;2022-11-12T11:45:30;8.90;32.90
51595;DHT22;37677;53.254;6.594;2022-11-12T11:56:18;9.10;34.30
51595;DHT22;37677;53.254;6.594;2022-11-12T12:06:29;9.20;32.60
51595;DHT22;37677;53.254;6.594;2022-11-12T12:22:39;9.40;32.70
51595;DHT22;37677;53.254;6.594;2022-11-12T12:25:21;9.50;32.80
51595;DHT22;37677;53.254;6.594;2022-11-12T12:27:52;9.50;32.30
51595;DHT22;37677;53.254;6.594;2022-11-12T12:30:23;9.70;31.40
51595;DHT22;37677;53.254;6.594;2022-11-12T12:33:03;10.00;31.40
51595;DHT22;37677;53.254;6.594;2022-11-12T12:38:54;9.60;28.90
51595;DHT22;37677;53.254;6.594;2022-11-12T12:41:29;10.50;29.80
51595;DHT22;37677;53.254;6.594;2022-11-12T12:44:04;9.60;29.30
51595;DHT22;37677;53.254;6.594;2022-11-12T12:46:33;9.60;29.10
51595;DHT22;37677;53.254;6.594;2022-11-12T12:49:03;9.70;28.10
51595;DHT22;37677;53.254;6.594;2022-11-12T12:51:30;10.20;27.60
51595;DHT22;37677;53.254;6.594;2022-11-12T12:53:56;9.60;27.60
51595;DHT22;37677;53.254;6.594;2022-11-12T12:58:54;9.80;28.70
51595;DHT22;37677;53.254;6.594;2022-11-12T13:08:59;12.40;26.30
51595;DHT22;37677;53.254;6.594;2022-11-12T13:22:47;10.30;24.50
51595;DHT22;37677;53.254;6.594;2022-11-12T13:37:44;10.20;16.30
51595;DHT22;37677;53.254;6.594;2022-11-12T13:40:24;10.20;14.70
51595;DHT22;37677;53.254;6.594;2022-11-12T13:42:52;10.20;14.90
51595;DHT22;37677;53.254;6.594;2022-11-12T13:45:21;11.30;16.00
51595;DHT22;37677;53.254;6.594;2022-11-12T13:47:47;10.20;14.80
51595;DHT22;37677;53.254;6.594;2022-11-12T13:50:18;10.10;13.90
51595;DHT22;37677;53.254;6.594;2022-11-12T13:52:46;10.20;14.00
51595;DHT22;37677;53.254;6.594;2022-11-12T13:55:18;11.10;16.30
51595;DHT22;37677;53.254;6.594;2022-11-12T13:57:52;10.10;15.40
51595;DHT22;37677;53.254;6.594;2022-11-12T14:00:20;10.10;14.80
51595;DHT22;37677;53.254;6.594;2022-11-12T14:03:06;10.10;13.70
51595;DHT22;37677;53.254;6.594;2022-11-12T14:05:33;10.00;13.80
51595;DHT22;37677;53.254;6.594;2022-11-12T14:13:48;10.00;14.10
51595;DHT22;37677;53.254;6.594;2022-11-12T14:16:43;10.00;15.30
51595;DHT22;37677;53.254;6.594;2022-11-12T14:22:17;9.90;14.90
51595;DHT22;37677;53.254;6.594;2022-11-12T14:24:44;9.90;15.20
51595;DHT22;37677;53.254;6.594;2022-11-12T14:27:37;9.90;15.10
51595;DHT22;37677;53.254;6.594;2022-11-12T14:32:37;10.40;16.80
51595;DHT22;37677;53.254;6.594;2022-11-12T14:35:19;9.70;17.10
51595;DHT22;37677;53.254;6.594;2022-11-12T14:37:52;9.80;19.30
51595;DHT22;37677;53.254;6.594;2022-11-12T14:40:21;9.70;18.50
51595;DHT22;37677;53.254;6.594;2022-11-12T14:42:48;10.10;19.30
51595;DHT22;37677;53.254;6.594;2022-11-12T14:45:16;10.00;20.10
51595;DHT22;37677;53.254;6.594;2022-11-12T14:47:47;10.00;20.80
51595;DHT22;37677;53.254;6.594;2022-11-12T14:50:28;9.90;21.50
51595;DHT22;37677;53.254;6.594;2022-11-12T14:52:59;9.80;22.20
51595;DHT22;37677;53.254;6.594;2022-11-12T14:55:29;9.90;22.80
51595;DHT22;37677;53.254;6.594;2022-11-12T14:57:55;10.00;24.10
51595;DHT22;37677;53.254;6.594;2022-11-12T15:02:55;9.70;24.70
51595;DHT22;37677;53.254;6.594;2022-11-12T15:05:21;10.10;24.10
51595;DHT22;37677;53.254;6.594;2022-11-12T15:10:33;9.50;24.20
51595;DHT22;37677;53.254;6.594;2022-11-12T15:15:26;9.50;24.80
51595;DHT22;37677;53.254;6.594;2022-11-12T15:18:01;9.40;24.90
51595;DHT22;37677;53.254;6.594;2022-11-12T15:20:27;9.40;25.60
51595;DHT22;37677;53.254;6.594;2022-11-12T15:22:53;9.50;27.10
51595;DHT22;37677;53.254;6.594;2022-11-12T15:25:20;9.40;26.60
51595;DHT22;37677;53.254;6.594;2022-11-12T15:27:47;9.40;27.20
51595;DHT22;37677;53.254;6.594;2022-11-12T15:32:49;9.40;26.70
51595;DHT22;37677;53.254;6.594;2022-11-12T15:35:35;9.30;27.00
51595;DHT22;37677;53.254;6.594;2022-11-12T15:38:09;9.20;27.50
51595;DHT22;37677;53.254;6.594;2022-11-12T15:40:41;9.20;27.80
51595;DHT22;37677;53.254;6.594;2022-11-12T15:43:20;9.80;28.00
51595;DHT22;37677;53.254;6.594;2022-11-12T15:45:50;10.40;30.20
51595;DHT22;37677;53.254;6.594;2022-11-12T15:48:17;9.20;29.00
51595;DHT22;37677;53.254;6.594;2022-11-12T15:50:43;10.50;29.20
51595;DHT22;37677;53.254;6.594;2022-11-12T15:53:09;9.10;28.90
51595;DHT22;37677;53.254;6.594;2022-11-12T15:55:36;9.10;28.90
51595;DHT22;37677;53.254;6.594;2022-11-12T15:58:03;11.10;29.20
51595;DHT22;37677;53.254;6.594;2022-11-12T16:00:32;9.10;28.80
51595;DHT22;37677;53.254;6.594;2022-11-12T16:05:35;9.00;29.30
51595;DHT22;37677;53.254;6.594;2022-11-12T16:08:01;9.10;31.70
51595;DHT22;37677;53.254;6.594;2022-11-12T16:10:27;9.10;32.90
51595;DHT22;37677;53.254;6.594;2022-11-12T16:12:57;9.00;33.10
51595;DHT22;37677;53.254;6.594;2022-11-12T16:15:23;10.00;32.60
51595;DHT22;37677;53.254;6.594;2022-11-12T16:17:51;9.80;44.90
51595;DHT22;37677;53.254;6.594;2022-11-12T16:20:20;10.20;38.20
51595;DHT22;37677;53.254;6.594;2022-11-12T16:22:46;10.20;33.90
51595;DHT22;37677;53.254;6.594;2022-11-12T16:25:12;9.60;30.10
51595;DHT22;37677;53.254;6.594;2022-11-12T16:27:39;9.30;29.50
51595;DHT22;37677;53.254;6.594;2022-11-12T16:30:20;9.20;28.40
51595;DHT22;37677;53.254;6.594;2022-11-12T16:32:46;9.30;31.40
51595;DHT22;37677;53.254;6.594;2022-11-12T16:35:13;9.40;28.90
51595;DHT22;37677;53.254;6.594;2022-11-12T16:37:40;9.10;28.50
51595;DHT22;37677;53.254;6.594;2022-11-12T16:40:12;9.40;30.50
51595;DHT22;37677;53.254;6.594;2022-11-12T16:42:38;9.10;28.10
51595;DHT22;37677;53.254;6.594;2022-11-12T16:45:14;9.00;29.90
51595;DHT22;37677;53.254;6.594;2022-11-12T16:47:45;8.90;27.60
51595;DHT22;37677;53.254;6.594;2022-11-12T16:50:13;10.40;33.10
51595;DHT22;37677;53.254;6.594;2022-11-12T16:52:38;8.90;29.10
51595;DHT22;37677;53.254;6.594;2022-11-12T16:55:04;10.00;29.30
51595;DHT22;37677;53.254;6.594;2022-11-12T16:57:30;8.80;28.10
51595;DHT22;37677;53.254;6.594;2022-11-12T16:59:56;8.80;28.10
51595;DHT22;37677;53.254;6.594;2022-11-12T17:02:21;9.10;27.50
51595;DHT22;37677;53.254;6.594;2022-11-12T17:04:47;9.50;24.80
51595;DHT22;37677;53.254;6.594;2022-11-12T17:07:13;8.60;25.20
51595;DHT22;37677;53.254;6.594;2022-11-12T17:09:38;8.80;25.90
51595;DHT22;37677;53.254;6.594;2022-11-12T17:12:04;8.80;25.70
51595;DHT22;37677;53.254;6.594;2022-11-12T17:14:30;9.20;25.50
51595;DHT22;37677;53.254;6.594;2022-11-12T17:16:55;9.50;25.80
51595;DHT22;37677;53.254;6.594;2022-11-12T17:19:21;8.90;24.30
51595;DHT22;37677;53.254;6.594;2022-11-12T17:21:46;8.10;23.90
51595;DHT22;37677;53.254;6.594;2022-11-12T17:24:12;8.40;25.40
51595;DHT22;37677;53.254;6.594;2022-11-12T17:26:39;8.10;22.90
51595;DHT22;37677;53.254;6.594;2022-11-12T17:29:04;8.50;24.60
51595;DHT22;37677;53.254;6.594;2022-11-12T17:31:30;8.20;25.60
51595;DHT22;37677;53.254;6.594;2022-11-12T17:33:56;9.30;26.40
51595;DHT22;37677;53.254;6.594;2022-11-12T17:36:24;8.80;28.60
51595;DHT22;37677;53.254;6.594;2022-11-12T17:38:55;8.10;27.00
51595;DHT22;37677;53.254;6.594;2022-11-12T17:41:21;8.20;28.60
51595;DHT22;37677;53.254;6.594;2022-11-12T17:43:47;8.20;31.30
51595;DHT22;37677;53.254;6.594;2022-11-12T17:46:17;8.10;30.90